Time;durP1;ratioP1;P1;durP2;ratioP2;P2;SDS_P1;SDS_P2;PMS_P1;PMS_P2;Temp;Humidity;BMP_temperature;BMP_pressure;BME280_temperature;BME280_humidity;BME280_pressure;Samples;Min_cycle;Max_cycle;Signal;HPM_P1;HPM_P2
2022/01/10 00:00:00;;;;;;;73.60;31.60;;;3.30;99.90;;;;;;5094350;28;20081;-70
2022/01/10 00:02:25;;;;;;;64.07;27.15;;;3.30;99.90;;;;;;5092494;28;20032;-70
2022/01/10 00:04:51;;;;;;;61.38;28.42;;;3.40;99.90;;;;;;5094009;28;20060;-70
2022/01/10 00:07:17;;;;;;;63.10;27.42;;;3.40;99.90;;;;;;5092287;28;20024;-70
2022/01/10 00:09:42;;;;;;;58.08;25.02;;;3.40;99.90;;;;;;5092444;28;20077;-71
2022/01/10 00:12:08;;;;;;;57.72;26.98;;;3.50;99.90;;;;;;5093502;28;20083;-70
2022/01/10 00:14:34;;;;;;;61.70;25.17;;;3.50;99.90;;;;;;5109902;28;20020;-71
2022/01/10 00:16:59;;;;;;;59.10;25.02;;;3.50;99.90;;;;;;5092385;28;20044;-71
2022/01/10 00:19:25;;;;;;;53.97;25.55;;;3.60;99.90;;;;;;5092671;28;20028;-70
2022/01/10 00:21:50;;;;;;;54.03;25.85;;;3.60;99.90;;;;;;5093528;28;20027;-71
2022/01/10 00:24:16;;;;;;;52.97;25.40;;;3.60;99.90;;;;;;5094074;28;20067;-70
2022/01/10 00:26:41;;;;;;;63.88;25.30;;;3.70;99.90;;;;;;5094071;28;20077;-70
2022/01/10 00:29:07;;;;;;;54.20;24.17;;;3.70;99.90;;;;;;5092889;28;20103;-70
2022/01/10 00:31:32;;;;;;;58.22;25.20;;;3.70;99.90;;;;;;5075331;28;20016;-70
2022/01/10 00:33:58;;;;;;;61.88;25.27;;;3.70;99.90;;;;;;5093448;28;20028;-71
2022/01/10 00:36:25;;;;;;;50.42;23.83;;;3.60;99.90;;;;;;5093703;28;20016;-71
2022/01/10 00:38:50;;;;;;;51.40;23.60;;;3.70;99.90;;;;;;5093687;28;20020;-70
2022/01/10 00:41:16;;;;;;;57.58;24.73;;;3.70;99.90;;;;;;5092791;28;20024;-70
2022/01/10 00:43:46;;;;;;;61.97;24.55;;;3.70;99.90;;;;;;5093886;28;20085;-70
2022/01/10 00:46:11;;;;;;;50.75;24.05;;;3.70;99.90;;;;;;5093633;28;20020;-71
2022/01/10 00:48:37;;;;;;;54.50;23.05;;;3.70;99.90;;;;;;5093874;28;20374;-71
2022/01/10 00:51:02;;;;;;;55.90;23.20;;;3.70;99.90;;;;;;5093777;28;20350;-71
2022/01/10 00:53:28;;;;;;;56.72;23.27;;;3.70;99.90;;;;;;5092854;28;20035;-71
2022/01/10 00:55:54;;;;;;;51.13;23.42;;;3.70;99.90;;;;;;5093526;28;20050;-71
2022/01/10 00:58:19;;;;;;;57.28;24.55;;;3.70;99.90;;;;;;5092603;28;20480;-71
2022/01/10 01:00:45;;;;;;;54.25;24.63;;;3.70;99.90;;;;;;5093756;28;20028;-71
2022/01/10 01:03:10;;;;;;;50.60;24.30;;;3.80;99.90;;;;;;5093721;28;20028;-71
2022/01/10 01:05:42;;;;;;;56.35;24.05;;;3.80;99.90;;;;;;5092568;28;20060;-70
2022/01/10 01:08:09;;;;;;;52.05;23.95;;;3.80;99.90;;;;;;5093120;28;20024;-70
2022/01/10 01:13:20;;;;;;;58.85;24.17;;;3.70;99.90;;;;;;5093293;28;20032;-71
2022/01/10 01:15:58;;;;;;;53.30;24.40;;;3.70;99.90;;;;;;5093402;28;20090;-71
2022/01/10 01:24:03;;;;;;;60.63;25.58;;;3.80;99.90;;;;;;5096549;28;20449;-71
2022/01/10 01:26:30;;;;;;;46.95;24.13;;;3.80;99.90;;;;;;5096040;28;20024;-70
2022/01/10 01:28:56;;;;;;;59.22;25.90;;;3.70;99.90;;;;;;5097129;28;20024;-72
2022/01/10 01:31:21;;;;;;;57.97;25.23;;;3.80;99.90;;;;;;5096689;28;20081;-70
2022/01/10 01:33:47;;;;;;;57.22;25.27;;;3.80;99.90;;;;;;5095546;28;20031;-71
2022/01/10 01:36:16;;;;;;;56.42;25.15;;;3.80;99.90;;;;;;5095807;28;20365;-71
2022/01/10 01:38:42;;;;;;;48.15;24.35;;;3.80;99.90;;;;;;5096889;28;20024;-71
2022/01/10 01:41:35;;;;;;;53.20;25.75;;;3.70;99.90;;;;;;5096337;28;20358;-71
2022/01/10 01:43:54;;;;;;;58.63;27.17;;;3.70;99.90;;;;;;5096151;28;20054;-71
2022/01/10 01:46:20;;;;;;;56.72;25.90;;;3.70;99.90;;;;;;5096499;28;20186;-71
2022/01/10 01:48:46;;;;;;;62.90;26.02;;;3.70;99.90;;;;;;5096722;28;20046;-72
2022/01/10 01:51:13;;;;;;;65.25;27.13;;;3.70;99.90;;;;;;5096324;28;20393;-71
2022/01/10 01:53:39;;;;;;;61.13;25.42;;;3.70;99.90;;;;;;5096355;28;20024;-72
2022/01/10 01:56:06;;;;;;;52.65;27.35;;;3.80;99.90;;;;;;5095436;28;20073;-71
2022/01/10 01:58:32;;;;;;;58.50;26.83;;;3.70;99.90;;;;;;5096173;28;20382;-72
2022/01/10 02:00:59;;;;;;;50.38;25.92;;;3.70;99.90;;;;;;5096229;28;20073;-71
2022/01/10 02:03:24;;;;;;;61.42;26.77;;;3.80;99.90;;;;;;5096135;28;20028;-71
2022/01/10 02:05:50;;;;;;;54.03;25.98;;;3.80;99.90;;;;;;5096075;28;20051;-71
2022/01/10 02:08:16;;;;;;;53.08;25.73;;;3.80;99.90;;;;;;5094911;28;20028;-71
2022/01/10 02:10:41;;;;;;;47.58;24.70;;;3.70;99.90;;;;;;5096091;28;20032;-72
2022/01/10 02:13:07;;;;;;;53.83;25.73;;;3.70;99.90;;;;;;5095650;28;20027;-71
2022/01/10 02:15:48;;;;;;;62.92;26.77;;;3.70;99.90;;;;;;5095906;28;20432;-70
2022/01/10 02:18:15;;;;;;;54.05;27.63;;;3.70;99.90;;;;;;5096180;28;20025;-70
2022/01/10 02:20:41;;;;;;;57.95;28.00;;;3.70;99.90;;;;;;5095856;28;20040;-71
2022/01/10 02:23:07;;;;;;;63.50;27.98;;;3.70;99.90;;;;;;5095527;28;20071;-71
2022/01/10 02:25:32;;;;;;;63.05;28.55;;;3.70;99.90;;;;;;5094780;28;20062;-71
2022/01/10 02:27:59;;;;;;;65.75;28.83;;;3.80;99.90;;;;;;5095969;28;20039;-71
2022/01/10 02:30:25;;;;;;;69.97;28.63;;;3.70;99.90;;;;;;5077528;28;20020;-71
2022/01/10 02:32:51;;;;;;;56.53;27.35;;;3.80;99.90;;;;;;5095487;28;20435;-71
2022/01/10 02:35:24;;;;;;;64.47;28.45;;;3.70;99.90;;;;;;5094000;28;20035;-71
2022/01/10 02:37:51;;;;;;;60.85;28.83;;;3.70;99.90;;;;;;5095544;28;20457;-71
2022/01/10 02:40:19;;;;;;;60.63;28.38;;;3.70;99.90;;;;;;5095733;28;20031;-71
2022/01/10 02:42:45;;;;;;;62.78;28.65;;;3.70;99.90;;;;;;5094287;28;20457;-71
2022/01/10 02:45:11;;;;;;;61.80;29.83;;;3.80;99.90;;;;;;5094358;28;20028;-71
2022/01/10 02:47:37;;;;;;;77.15;30.08;;;3.70;99.90;;;;;;5094114;28;20069;-71
2022/01/10 02:50:04;;;;;;;66.53;30.42;;;3.70;99.90;;;;;;5095546;28;20410;-70
2022/01/10 02:52:30;;;;;;;56.53;28.63;;;3.80;99.90;;;;;;5077454;28;20028;-71
2022/01/10 02:55:00;;;;;;;55.85;28.58;;;3.80;99.90;;;;;;5093633;28;20032;-71
2022/01/10 02:57:26;;;;;;;64.88;29.70;;;3.80;99.90;;;;;;5094136;28;20027;-71
2022/01/10 02:59:51;;;;;;;69.20;31.35;;;3.80;99.90;;;;;;5093924;28;20024;-71
2022/01/10 03:02:20;;;;;;;65.28;29.38;;;3.80;99.90;;;;;;5094150;28;20103;-71
2022/01/10 03:04:45;;;;;;;69.15;29.20;;;3.80;99.90;;;;;;5076769;28;20081;-71
2022/01/10 03:07:16;;;;;;;66.38;32.03;;;3.70;99.90;;;;;;5095207;28;20031;-71
2022/01/10 03:09:41;;;;;;;73.35;32.28;;;3.70;99.90;;;;;;5094870;28;20024;-71
2022/01/10 03:12:09;;;;;;;65.63;31.60;;;3.80;99.90;;;;;;5093225;28;20051;-71
2022/01/10 03:14:35;;;;;;;60.45;30.52;;;3.70;99.90;;;;;;5095074;28;20027;-71
2022/01/10 03:17:01;;;;;;;67.53;32.30;;;3.70;99.90;;;;;;5093569;28;20449;-71
2022/01/10 03:19:27;;;;;;;67.05;31.88;;;3.70;99.90;;;;;;5093558;28;20028;-71
2022/01/10 03:21:52;;;;;;;69.65;32.15;;;3.70;99.90;;;;;;5094650;28;20392;-71
2022/01/10 03:24:19;;;;;;;67.90;32.95;;;3.70;99.90;;;;;;5094627;28;20036;-71
2022/01/10 03:26:44;;;;;;;65.80;32.38;;;3.70;99.90;;;;;;5094594;28;20392;-71
2022/01/10 03:29:10;;;;;;;65.10;31.90;;;3.70;99.90;;;;;;5092993;28;20032;-71
2022/01/10 03:31:35;;;;;;;69.90;33.30;;;3.70;99.90;;;;;;5094703;28;20032;-71
2022/01/10 03:34:01;;;;;;;73.75;33.55;;;3.70;99.90;;;;;;5094186;28;20026;-71
2022/01/10 03:36:26;;;;;;;78.50;34.53;;;3.70;99.90;;;;;;5094702;28;20457;-71
2022/01/10 03:38:52;;;;;;;69.95;33.55;;;3.70;99.90;;;;;;5094644;28;20031;-71
2022/01/10 03:41:17;;;;;;;75.78;33.55;;;3.70;99.90;;;;;;5094865;28;20479;-71
2022/01/10 03:43:43;;;;;;;69.32;34.08;;;3.70;99.90;;;;;;5094187;28;20537;-71
2022/01/10 03:46:08;;;;;;;72.78;33.50;;;3.70;99.90;;;;;;5094747;28;20032;-71
2022/01/10 03:48:34;;;;;;;73.28;32.55;;;3.70;99.90;;;;;;5094487;28;20062;-71
2022/01/10 03:51:00;;;;;;;74.60;36.08;;;3.70;99.90;;;;;;5094170;28;20028;-71
2022/01/10 03:53:26;;;;;;;71.18;35.85;;;3.70;99.90;;;;;;5094065;28;20377;-71
2022/01/10 03:55:51;;;;;;;76.90;35.00;;;3.60;99.90;;;;;;5094111;28;20493;-71
2022/01/10 03:58:17;;;;;;;63.97;33.15;;;3.60;99.90;;;;;;5094383;28;20024;-71
2022/01/10 04:00:42;;;;;;;70.95;33.90;;;3.60;99.90;;;;;;5093773;28;20027;-71
2022/01/10 04:03:08;;;;;;;74.70;32.65;;;3.60;99.90;;;;;;5094021;28;20157;-71
2022/01/10 04:05:34;;;;;;;70.35;34.20;;;3.60;99.90;;;;;;5092465;28;20492;-70
2022/01/10 04:08:01;;;;;;;80.85;34.63;;;3.60;99.90;;;;;;5094204;28;20475;-71
2022/01/10 04:10:27;;;;;;;83.53;36.15;;;3.60;99.90;;;;;;5093933;28;20036;-71
2022/01/10 04:12:52;;;;;;;79.45;35.97;;;3.50;99.90;;;;;;5092236;28;20504;-71
2022/01/10 04:15:18;;;;;;;83.32;38.13;;;3.60;99.90;;;;;;5093933;28;20095;-71
2022/01/10 04:17:44;;;;;;;92.47;36.03;;;3.50;99.90;;;;;;5075556;28;20024;-71
2022/01/10 04:20:10;;;;;;;82.75;36.80;;;3.50;99.90;;;;;;5092686;28;20028;-71
2022/01/10 04:22:35;;;;;;;84.95;36.88;;;3.50;99.90;;;;;;5094092;28;20028;-70
2022/01/10 04:25:01;;;;;;;77.20;35.80;;;3.50;99.90;;;;;;5094066;28;20028;-70
2022/01/10 04:27:31;;;;;;;75.35;33.38;;;3.50;99.90;;;;;;5093805;28;20040;-71
2022/01/10 04:29:58;;;;;;;73.63;33.92;;;3.40;99.90;;;;;;5093733;28;20111;-70
2022/01/10 04:32:24;;;;;;;72.55;33.63;;;3.40;99.90;;;;;;5092477;28;20112;-70
2022/01/10 04:34:51;;;;;;;64.97;30.73;;;3.30;99.90;;;;;;5093716;28;20107;-71
2022/01/10 04:37:17;;;;;;;65.30;30.75;;;3.30;99.90;;;;;;5093983;28;20016;-71
2022/01/10 04:39:42;;;;;;;65.88;31.02;;;3.20;99.90;;;;;;5092441;28;20028;-71
2022/01/10 04:42:08;;;;;;;66.00;30.20;;;3.20;99.90;;;;;;5092112;28;20024;-71
2022/01/10 04:44:33;;;;;;;68.40;31.60;;;3.20;99.90;;;;;;5093905;28;20090;-71
2022/01/10 04:46:59;;;;;;;69.15;31.42;;;3.10;99.90;;;;;;5093913;28;20028;-70
2022/01/10 04:49:26;;;;;;;72.35;32.90;;;3.10;99.90;;;;;;5092335;28;20028;-70
2022/01/10 04:51:54;;;;;;;79.20;33.40;;;3.10;99.90;;;;;;5093756;28;20461;-71
2022/01/10 04:54:20;;;;;;;91.90;36.85;;;3.10;99.90;;;;;;5095070;28;20034;-70
2022/01/10 04:56:46;;;;;;;82.72;35.22;;;3.10;99.90;;;;;;5097466;28;20099;-71
2022/01/10 04:59:12;;;;;;;87.68;36.55;;;3.10;99.90;;;;;;5097672;28;20115;-71
2022/01/10 05:01:38;;;;;;;90.75;39.15;;;3.10;99.90;;;;;;5097374;28;20032;-70
2022/01/10 05:04:04;;;;;;;93.38;38.05;;;3.10;99.90;;;;;;5097643;28;20103;-71
2022/01/10 05:06:29;;;;;;;100.15;41.38;;;3.10;99.90;;;;;;5096119;28;20063;-71
2022/01/10 05:08:55;;;;;;;102.35;40.53;;;3.10;99.90;;;;;;5097524;28;20024;-71
2022/01/10 05:11:20;;;;;;;97.63;41.17;;;3.20;99.90;;;;;;5095659;28;20401;-71
2022/01/10 05:13:46;;;;;;;98.78;40.35;;;3.20;99.90;;;;;;5097411;28;20051;-71
2022/01/10 05:16:13;;;;;;;108.15;41.08;;;3.20;99.90;;;;;;5097390;28;20048;-71
2022/01/10 05:18:39;;;;;;;93.45;41.10;;;3.20;99.90;;;;;;5095882;28;20028;-71
2022/01/10 05:21:05;;;;;;;98.70;39.63;;;3.20;99.90;;;;;;5096968;28;20157;-71
2022/01/10 05:23:30;;;;;;;97.55;41.65;;;3.10;99.90;;;;;;5078706;28;20078;-70
2022/01/10 05:25:56;;;;;;;95.82;40.92;;;3.10;99.90;;;;;;5097173;28;20473;-71
2022/01/10 05:28:21;;;;;;;82.55;39.65;;;3.10;99.90;;;;;;5096817;28;20020;-71
2022/01/10 05:30:49;;;;;;;107.38;40.70;;;3.10;99.90;;;;;;5095570;28;20024;-72
2022/01/10 05:33:15;;;;;;;105.70;42.88;;;3.10;99.90;;;;;;5095452;28;20033;-71
2022/01/10 05:35:44;;;;;;;96.53;42.33;;;3.10;99.90;;;;;;5096712;28;20033;-70
2022/01/10 05:38:10;;;;;;;99.70;42.53;;;3.10;99.90;;;;;;5096685;28;20532;-71
2022/01/10 05:40:35;;;;;;;98.05;41.35;;;3.00;99.90;;;;;;5095614;28;20070;-70
2022/01/10 05:43:01;;;;;;;92.78;40.28;;;3.10;99.90;;;;;;5096230;28;20057;-71
2022/01/10 05:45:27;;;;;;;94.70;41.10;;;3.00;99.90;;;;;;5096492;28;20035;-71
2022/01/10 05:47:52;;;;;;;89.57;39.83;;;3.00;99.90;;;;;;5096704;28;20487;-71
2022/01/10 05:50:30;;;;;;;91.57;39.03;;;3.00;99.90;;;;;;5096666;28;20066;-72
2022/01/10 05:52:56;;;;;;;103.32;41.20;;;3.00;99.90;;;;;;5110683;28;20032;-72
2022/01/10 05:55:21;;;;;;;96.18;42.95;;;3.00;99.90;;;;;;5096598;28;20027;-71
2022/01/10 05:57:47;;;;;;;91.05;41.05;;;3.00;99.90;;;;;;5096546;28;20016;-70
2022/01/10 06:00:12;;;;;;;91.40;40.05;;;3.00;99.90;;;;;;5096499;28;20020;-71
2022/01/10 06:02:38;;;;;;;103.18;41.30;;;3.00;99.90;;;;;;5096473;28;20052;-71
2022/01/10 06:05:08;;;;;;;106.53;42.42;;;3.00;99.90;;;;;;5077696;28;20031;-71
2022/01/10 06:07:34;;;;;;;106.35;39.95;;;3.00;99.90;;;;;;5094976;28;20101;-71
2022/01/10 06:10:00;;;;;;;87.50;39.55;;;3.00;99.90;;;;;;5096358;28;20468;-71
2022/01/10 06:12:26;;;;;;;95.95;39.58;;;3.00;99.90;;;;;;5094918;28;20044;-71
2022/01/10 06:14:51;;;;;;;106.55;40.30;;;2.90;99.90;;;;;;5096202;28;20020;-71
2022/01/10 06:17:17;;;;;;;97.80;40.63;;;3.00;99.90;;;;;;5095884;28;20024;-71
2022/01/10 06:19:42;;;;;;;86.95;39.83;;;2.90;99.90;;;;;;5095775;28;20372;-71
2022/01/10 06:22:08;;;;;;;95.35;41.38;;;2.90;99.90;;;;;;5094263;28;20115;-71
2022/01/10 06:24:33;;;;;;;100.68;39.47;;;2.80;99.90;;;;;;5097601;28;20024;-71
2022/01/10 06:26:59;;;;;;;96.25;40.20;;;2.80;99.90;;;;;;5097768;28;20417;-71
2022/01/10 06:29:24;;;;;;;93.15;41.33;;;2.70;99.90;;;;;;5099404;28;20032;-71
2022/01/10 06:31:50;;;;;;;106.65;40.45;;;2.70;99.90;;;;;;5097293;28;20169;-74
2022/01/10 06:34:15;;;;;;;96.90;42.22;;;2.60;99.90;;;;;;5095541;28;20031;-71
2022/01/10 06:36:40;;;;;;;91.40;39.35;;;2.60;99.90;;;;;;5095802;28;20453;-71
2022/01/10 06:39:06;;;;;;;90.43;38.97;;;2.50;99.90;;;;;;5094258;28;20013;-70
2022/01/10 06:41:32;;;;;;;110.43;42.28;;;2.50;99.90;;;;;;5095648;28;20028;-71
2022/01/10 06:43:57;;;;;;;99.57;40.63;;;2.40;99.90;;;;;;5094397;28;20028;-70
2022/01/10 06:46:23;;;;;;;104.75;41.03;;;2.40;99.90;;;;;;5095523;28;20028;-70
2022/01/10 06:48:48;;;;;;;98.97;41.42;;;2.30;99.90;;;;;;5094772;28;20032;-70
2022/01/10 06:51:14;;;;;;;102.07;41.67;;;2.20;99.90;;;;;;5095381;28;20031;-71
2022/01/10 06:53:39;;;;;;;94.05;41.67;;;2.20;99.90;;;;;;5095423;28;20032;-70
2022/01/10 06:56:05;;;;;;;114.07;44.00;;;2.10;99.90;;;;;;5095397;28;20438;-69
2022/01/10 06:58:30;;;;;;;122.32;44.35;;;2.20;99.90;;;;;;5095345;28;20024;-71
2022/01/10 07:00:56;;;;;;;117.10;44.50;;;2.10;99.90;;;;;;5094956;28;20024;-71
2022/01/10 07:03:21;;;;;;;113.38;45.25;;;2.20;99.90;;;;;;5094976;28;20389;-70
2022/01/10 07:05:47;;;;;;;115.25;44.85;;;2.20;99.90;;;;;;5093719;28;20377;-71
2022/01/10 07:08:12;;;;;;;117.97;45.45;;;2.20;99.90;;;;;;5095192;28;20039;-70
2022/01/10 07:10:38;;;;;;;104.13;42.70;;;2.20;99.90;;;;;;5094895;28;20031;-71
2022/01/10 07:13:03;;;;;;;99.90;42.20;;;2.20;99.90;;;;;;5093961;28;20514;-70
2022/01/10 07:15:29;;;;;;;105.47;43.50;;;2.20;99.90;;;;;;5095028;28;20103;-70
2022/01/10 07:17:55;;;;;;;93.10;42.10;;;2.20;99.90;;;;;;5094271;28;20021;-69
2022/01/10 07:20:21;;;;;;;94.35;40.40;;;2.10;99.90;;;;;;5093356;28;20373;-70
2022/01/10 07:22:46;;;;;;;110.53;42.63;;;2.10;99.90;;;;;;5094523;28;20091;-69
2022/01/10 07:25:12;;;;;;;94.57;38.83;;;2.10;99.90;;;;;;5094820;28;20034;-69
2022/01/10 07:27:38;;;;;;;97.82;40.53;;;2.10;99.90;;;;;;5094240;28;20060;-70
2022/01/10 07:30:04;;;;;;;98.53;40.92;;;2.10;99.90;;;;;;5094677;28;20028;-70
2022/01/10 07:32:30;;;;;;;100.90;42.55;;;2.10;99.90;;;;;;5092909;28;20076;-71
2022/01/10 07:34:57;;;;;;;106.22;41.63;;;2.10;99.90;;;;;;5094129;28;20028;-69
2022/01/10 07:37:23;;;;;;;98.32;40.40;;;2.10;99.90;;;;;;5094137;28;20110;-70
2022/01/10 07:39:48;;;;;;;100.78;40.67;;;2.10;99.90;;;;;;5098364;28;20107;-70
2022/01/10 07:42:14;;;;;;;98.05;41.03;;;2.00;99.90;;;;;;5093081;28;20020;-70
2022/01/10 07:44:40;;;;;;;101.55;42.67;;;1.90;99.90;;;;;;5093032;28;20107;-70
2022/01/10 07:47:05;;;;;;;110.55;42.42;;;1.90;99.90;;;;;;5092791;28;20032;-70
2022/01/10 07:49:31;;;;;;;105.15;41.38;;;1.90;99.90;;;;;;5094409;28;20027;-70
2022/01/10 07:51:57;;;;;;;82.22;36.05;;;1.90;99.90;;;;;;5092864;28;20032;-70
2022/01/10 07:54:24;;;;;;;94.68;40.30;;;1.80;99.90;;;;;;5093479;28;20028;-70
2022/01/10 07:56:50;;;;;;;89.10;38.92;;;1.80;99.90;;;;;;5093777;28;20392;-67
2022/01/10 07:59:16;;;;;;;84.28;38.92;;;1.80;99.90;;;;;;5092076;28;20024;-67
2022/01/10 08:01:41;;;;;;;87.13;37.95;;;1.80;99.90;;;;;;5092580;28;20024;-67
2022/01/10 08:04:07;;;;;;;101.93;45.15;;;1.80;99.90;;;;;;5092965;28;20032;-67
2022/01/10 08:06:32;;;;;;;112.88;46.20;;;1.90;99.90;;;;;;5075331;28;20020;-66
2022/01/10 08:08:58;;;;;;;114.20;46.08;;;2.00;99.90;;;;;;5092930;28;20115;-67
2022/01/10 08:11:26;;;;;;;109.53;47.08;;;2.10;99.90;;;;;;5093447;28;20130;-67
2022/01/10 08:13:52;;;;;;;117.97;45.88;;;2.10;99.90;;;;;;5093073;28;20097;-67
2022/01/10 08:16:18;;;;;;;116.00;47.95;;;2.20;99.90;;;;;;5092409;28;20052;-67
2022/01/10 08:18:43;;;;;;;115.00;45.38;;;2.20;99.90;;;;;;5091972;28;20081;-67
2022/01/10 08:21:08;;;;;;;108.32;45.80;;;2.20;99.90;;;;;;5093166;28;20041;-70
2022/01/10 08:23:34;;;;;;;103.10;43.80;;;2.30;99.90;;;;;;5092774;28;20036;-71
2022/01/10 08:26:00;;;;;;;108.35;44.30;;;2.30;99.90;;;;;;5074537;28;20032;-71
2022/01/10 08:28:26;;;;;;;112.20;45.40;;;2.30;99.90;;;;;;5093744;28;20016;-71
2022/01/10 08:30:51;;;;;;;106.95;44.10;;;2.40;99.90;;;;;;5097902;28;20024;-71
2022/01/10 08:33:17;;;;;;;109.38;43.65;;;2.40;99.90;;;;;;5096940;28;20466;-71
2022/01/10 08:35:42;;;;;;;109.88;45.17;;;2.50;99.90;;;;;;5097257;28;20059;-71
2022/01/10 08:38:08;;;;;;;107.93;45.38;;;2.50;99.90;;;;;;5097724;28;20031;-71
2022/01/10 08:40:33;;;;;;;106.78;46.10;;;2.50;99.90;;;;;;5097026;28;20028;-71
2022/01/10 08:43:02;;;;;;;120.85;45.60;;;2.50;99.90;;;;;;5096745;28;20365;-72
2022/01/10 08:45:27;;;;;;;112.95;45.03;;;2.70;99.90;;;;;;5097042;28;20024;-72
2022/01/10 08:47:53;;;;;;;110.63;43.50;;;2.70;99.90;;;;;;5098049;28;20054;-71
2022/01/10 08:50:19;;;;;;;105.00;44.25;;;2.80;99.90;;;;;;5068192;28;20032;-72
2022/01/10 08:52:44;;;;;;;103.47;43.33;;;2.80;99.90;;;;;;5091891;28;20020;-72
2022/01/10 08:55:10;;;;;;;110.93;45.00;;;2.80;99.90;;;;;;5095939;28;20456;-72
2022/01/10 08:57:37;;;;;;;114.50;41.67;;;2.90;99.90;;;;;;5096991;28;20024;-72
2022/01/10 09:00:06;;;;;;;96.20;41.17;;;2.90;99.90;;;;;;5078167;28;20514;-72
2022/01/10 09:02:31;;;;;;;94.47;41.47;;;3.00;99.90;;;;;;5094881;28;20144;-72
2022/01/10 09:04:57;;;;;;;104.13;43.10;;;3.00;99.90;;;;;;5096206;28;20106;-72
2022/01/10 09:07:22;;;;;;;94.97;41.47;;;3.10;99.90;;;;;;5096335;28;20081;-72
2022/01/10 09:09:48;;;;;;;98.00;40.97;;;3.10;99.90;;;;;;5097089;28;20082;-71
2022/01/10 09:12:13;;;;;;;95.68;41.72;;;3.10;99.90;;;;;;5095185;28;20040;-72
2022/01/10 09:14:39;;;;;;;98.85;42.92;;;3.20;99.90;;;;;;5095048;28;20024;-71
2022/01/10 09:17:04;;;;;;;96.88;42.55;;;3.20;99.90;;;;;;5094481;28;20107;-72
2022/01/10 09:19:30;;;;;;;97.15;41.22;;;3.30;99.90;;;;;;5096026;28;20024;-72
2022/01/10 09:21:56;;;;;;;94.38;41.97;;;3.40;99.90;;;;;;5096196;28;20024;-72
2022/01/10 09:24:22;;;;;;;97.20;40.63;;;3.40;99.90;;;;;;5095300;28;20028;-72
2022/01/10 09:26:48;;;;;;;99.95;41.80;;;3.50;99.90;;;;;;5095725;28;20072;-72
2022/01/10 09:29:14;;;;;;;95.97;40.80;;;3.50;99.90;;;;;;5095048;28;20028;-72
2022/01/10 09:31:40;;;;;;;86.97;39.20;;;3.60;99.90;;;;;;5111902;27;20161;-72
2022/01/10 09:34:05;;;;;;;93.57;39.90;;;3.60;99.90;;;;;;5096526;28;20032;-72
2022/01/10 09:36:32;;;;;;;86.50;40.72;;;3.70;99.90;;;;;;5061938;28;20532;-72
2022/01/10 09:38:58;;;;;;;92.97;39.90;;;3.70;99.90;;;;;;5094137;28;20035;-72
2022/01/10 09:41:25;;;;;;;87.78;38.72;;;3.70;99.90;;;;;;5095858;28;20021;-72
2022/01/10 09:43:56;;;;;;;93.63;38.08;;;3.80;99.90;;;;;;5094885;28;20024;-73
2022/01/10 09:46:24;;;;;;;80.45;38.33;;;3.90;99.90;;;;;;5096385;28;20413;-73
2022/01/10 09:48:50;;;;;;;78.53;35.83;;;4.10;99.90;;;;;;5064219;28;20054;-72
2022/01/10 09:51:16;;;;;;;79.50;36.30;;;4.20;99.90;;;;;;5079972;28;20032;-72
2022/01/10 09:53:42;;;;;;;76.90;35.33;;;4.20;99.90;;;;;;5095454;28;20074;-72
2022/01/10 09:56:08;;;;;;;87.28;35.50;;;4.40;99.90;;;;;;5095892;28;20047;-73
2022/01/10 09:58:34;;;;;;;77.55;32.70;;;4.40;99.90;;;;;;5096184;28;20027;-72
2022/01/10 10:01:01;;;;;;;78.30;32.95;;;4.40;99.90;;;;;;5077552;28;20020;-72
2022/01/10 10:03:27;;;;;;;82.93;33.75;;;4.40;99.90;;;;;;5095840;28;20063;-73
2022/01/10 10:05:54;;;;;;;77.55;33.65;;;4.40;99.90;;;;;;5098976;28;20060;-73
2022/01/10 10:08:21;;;;;;;84.28;33.70;;;4.40;99.90;;;;;;5095498;28;20028;-72
2022/01/10 10:10:48;;;;;;;78.78;33.47;;;4.50;99.90;;;;;;5077092;28;20031;-73
2022/01/10 10:13:15;;;;;;;71.90;32.63;;;4.50;99.90;;;;;;5095056;28;20032;-72
2022/01/10 10:15:42;;;;;;;74.28;33.13;;;4.50;99.90;;;;;;5095235;28;20117;-73
2022/01/10 10:18:09;;;;;;;67.55;34.05;;;4.50;99.90;;;;;;5094200;28;20016;-73
2022/01/10 10:20:35;;;;;;;76.93;32.75;;;4.50;99.90;;;;;;5094202;28;20381;-72
2022/01/10 10:23:03;;;;;;;80.95;33.58;;;4.40;99.90;;;;;;5095658;28;20028;-72
2022/01/10 10:25:29;;;;;;;71.63;32.60;;;4.40;99.90;;;;;;5095066;28;20069;-73
2022/01/10 10:27:56;;;;;;;78.60;33.55;;;4.40;99.90;;;;;;5095143;28;20028;-73
2022/01/10 10:30:27;;;;;;;73.00;34.17;;;4.40;99.90;;;;;;5095108;28;20111;-72
2022/01/10 10:33:14;;;;;;;85.43;35.08;;;4.50;99.90;;;;;;5095576;28;20026;-72
2022/01/10 10:35:42;;;;;;;83.78;34.83;;;4.50;99.90;;;;;;5094342;28;20020;-68
2022/01/10 10:38:07;;;;;;;74.72;34.53;;;4.50;99.90;;;;;;5094079;28;20028;-67
2022/01/10 10:40:39;;;;;;;89.53;35.83;;;4.60;99.90;;;;;;5095744;28;20020;-67
2022/01/10 10:43:07;;;;;;;81.63;33.95;;;4.70;99.90;;;;;;5094081;28;20044;-72
2022/01/10 10:45:33;;;;;;;81.22;35.22;;;4.80;99.90;;;;;;5093566;28;20044;-72
2022/01/10 10:48:04;;;;;;;74.95;33.35;;;4.90;99.90;;;;;;5090629;28;20029;-72
2022/01/10 10:50:33;;;;;;;67.97;33.55;;;4.90;99.90;;;;;;5075045;28;20078;-71
2022/01/10 10:53:04;;;;;;;75.40;33.42;;;5.10;99.90;;;;;;5072629;28;20069;-73
2022/01/10 10:55:32;;;;;;;80.35;34.92;;;5.10;99.90;;;;;;5071035;28;20481;-72
2022/01/10 10:57:59;;;;;;;80.28;34.50;;;5.10;99.90;;;;;;5074591;28;20025;-71
2022/01/10 11:00:24;;;;;;;81.95;36.10;;;5.10;99.90;;;;;;5090585;28;20074;-73
2022/01/10 11:02:51;;;;;;;78.53;33.50;;;5.20;99.90;;;;;;5094563;28;20031;-72
2022/01/10 11:05:16;;;;;;;82.63;34.10;;;5.20;99.90;;;;;;5093686;28;20059;-72
2022/01/10 11:07:42;;;;;;;78.95;34.08;;;5.20;99.90;;;;;;5093799;28;20465;-73
2022/01/10 11:10:08;;;;;;;70.50;33.50;;;5.20;99.90;;;;;;5092954;28;20012;-72
2022/01/10 11:12:38;;;;;;;77.03;34.30;;;5.20;99.90;;;;;;5094080;28;20040;-71
2022/01/10 11:15:04;;;;;;;83.45;36.13;;;5.20;99.90;;;;;;5093946;28;20055;-71
2022/01/10 11:17:30;;;;;;;74.40;35.53;;;5.20;99.90;;;;;;5076143;28;20420;-72
2022/01/10 11:20:18;;;;;;;75.10;34.58;;;5.20;99.90;;;;;;5093551;28;20520;-71
2022/01/10 11:22:47;;;;;;;77.28;35.78;;;5.20;99.90;;;;;;5127973;27;20392;-72
2022/01/10 11:25:33;;;;;;;72.55;36.50;;;5.40;99.90;;;;;;5080584;28;20028;-72
2022/01/10 11:28:06;;;;;;;89.57;40.63;;;5.50;99.90;;;;;;5078545;28;20103;-72
2022/01/10 11:30:42;;;;;;;78.20;38.30;;;5.60;99.90;;;;;;5057440;28;20025;-72
2022/01/10 11:33:15;;;;;;;90.40;38.53;;;5.70;99.90;;;;;;5093032;28;20039;-72
2022/01/10 11:35:43;;;;;;;82.47;38.30;;;5.70;99.90;;;;;;5092697;28;20393;-72
2022/01/10 11:38:38;;;;;;;89.90;38.83;;;5.70;99.90;;;;;;5093752;28;20044;-72
2022/01/10 11:44:07;;;;;;;80.25;38.97;;;6.00;99.90;;;;;;5091804;28;20382;-71
2022/01/10 11:46:41;;;;;;;91.20;39.72;;;6.00;99.90;;;;;;5088158;28;20469;-72
2022/01/10 11:49:13;;;;;;;80.35;38.83;;;6.00;99.90;;;;;;5089328;28;20127;-71
2022/01/10 11:51:43;;;;;;;83.93;42.00;;;6.00;99.90;;;;;;5090686;28;20024;-72
2022/01/10 11:54:28;;;;;;;85.82;38.15;;;6.00;99.90;;;;;;5090286;28;20020;-71
2022/01/10 11:57:00;;;;;;;80.60;36.75;;;6.10;99.90;;;;;;5090831;28;20039;-71
2022/01/10 11:59:38;;;;;;;81.65;38.17;;;6.30;99.90;;;;;;5089753;28;20029;-71
2022/01/10 12:02:10;;;;;;;81.18;39.63;;;;;;;;;;5088645;28;20078;-71
2022/01/10 12:04:41;;;;;;;81.72;38.78;;;6.60;99.90;;;;;;5089613;28;20100;-71
2022/01/10 12:07:10;;;;;;;87.47;39.78;;;6.70;99.90;;;;;;5089430;28;20036;-72
2022/01/10 12:09:36;;;;;;;81.68;38.30;;;6.70;99.90;;;;;;5088047;28;20027;-71
2022/01/10 12:12:03;;;;;;;74.38;38.00;;;6.90;99.90;;;;;;5089997;28;20036;-72
2022/01/10 12:14:29;;;;;;;81.65;37.85;;;7.10;99.90;;;;;;5090354;28;20016;-71
2022/01/10 12:16:55;;;;;;;85.20;39.17;;;7.10;99.90;;;;;;5089152;28;20229;-72
2022/01/10 12:19:22;;;;;;;81.68;34.45;;;7.00;99.90;;;;;;5089947;28;20085;-72
2022/01/10 12:21:48;;;;;;;74.70;35.38;;;7.10;99.90;;;;;;5089212;28;20164;-72
2022/01/10 12:24:14;;;;;;;70.43;33.90;;;7.20;99.90;;;;;;5085992;28;20023;-72
2022/01/10 12:26:41;;;;;;;71.60;33.90;;;7.30;99.90;;;;;;5089856;28;20020;-72
2022/01/10 12:29:09;;;;;;;72.63;32.33;;;7.40;99.90;;;;;;5072149;28;20024;-72
2022/01/10 12:31:37;;;;;;;67.90;31.27;;;7.40;99.90;;;;;;5090257;28;20024;-71
2022/01/10 12:34:04;;;;;;;72.03;32.88;;;7.30;99.90;;;;;;5090459;28;20043;-71
2022/01/10 12:36:34;;;;;;;66.35;31.00;;;7.20;99.90;;;;;;5090457;28;20104;-72
2022/01/10 12:39:09;;;;;;;70.53;31.15;;;7.30;99.90;;;;;;5090227;28;20032;-71
2022/01/10 12:41:36;;;;;;;74.63;32.55;;;7.20;99.90;;;;;;5088438;28;20024;-73
2022/01/10 12:44:01;;;;;;;79.05;34.92;;;7.30;99.90;;;;;;5068749;28;20112;-72